PWSweather.com
Personal Weather Stations
Station Observations
79674
AfterstegDE 79674

AfterstegDE 79674

Lat: 47.84344, Lon: 7.92844

Elevation: 809

Station Type: Davis Vantage 2 Aktive

Latest ConditionsUpdated 10:22:03 PM GMT+01:01 Thursday, Oct 18, 2018
Currently Today's Max Today's Min Today's Average
Temperature 55.8°F13.2°C 67.3°F19.6°C 51.4°F10.8°C 57.7°F14.3°C
Dew Point 48.4°F9.1°C 48.6°F9.2°C 41.7°F5.4°C 44.8°F7.1°C
Winds 2.0 mph E3.2 kmh E 6.0 mph -9.7 kmh - - 1.1 mph 1.8 kmh
Wind Gusts -- 12.1 mph19.5 kmh - -
Humidity 76% 80% 45% 63%
Pressure 30.09 in1019.0 mb 30.09 in1019.0 mb 30.03 in1016.9 mb -
Hour Temp Dew Point Humidity Winds Wind Gusts Pressure Precip Precip Rate Daily Precip Total
10:22 PM 55.8°F13.2°C 48.4°F9.1°C 76% 2.0 mph E3.2 kmh E -- 30.09 in1019.0 mb - 0.00 in0.0 mm 0.00 in0.0 mm
10:17 PM 55.8°F13.2°C 48.4°F9.1°C 76% 2.0 mph W3.2 kmh W 4.0 mph6.4 kmh 30.09 in1019.0 mb - 0.00 in0.0 mm 0.00 in0.0 mm
10:12 PM 55.6°F13.1°C 48.2°F9.0°C 76% 0.9 mph ESE1.4 kmh ESE 2.9 mph4.7 kmh 30.09 in1019.0 mb - 0.00 in0.0 mm 0.00 in0.0 mm
10:07 PM 55.9°F13.3°C 48.2°F9.0°C 75% 0.9 mph NNE1.4 kmh NNE 0.9 mph1.4 kmh 30.09 in1019.0 mb - 0.00 in0.0 mm 0.00 in0.0 mm
10:02 PM 55.9°F13.3°C 48.6°F9.2°C 76% 2.0 mph SW3.2 kmh SW -- 30.09 in1019.0 mb - 0.00 in0.0 mm 0.00 in0.0 mm
09:57 PM 55.9°F13.3°C 48.6°F9.2°C 76% 2.0 mph SW3.2 kmh SW 4.9 mph7.9 kmh 30.09 in1019.0 mb - 0.00 in0.0 mm 0.00 in0.0 mm
09:52 PM 55.6°F13.1°C 48.6°F9.2°C 77% 0.9 mph SW1.4 kmh SW -- 30.09 in1019.0 mb - 0.00 in0.0 mm 0.00 in0.0 mm
09:47 PM 55.2°F12.9°C 48.6°F9.2°C 78% Calm Calm -- 30.09 in1019.0 mb - 0.00 in0.0 mm 0.00 in0.0 mm
09:42 PM 54.9°F12.7°C 48.2°F9.0°C 78% Calm Calm -- 30.09 in1019.0 mb - 0.00 in0.0 mm 0.00 in0.0 mm
09:37 PM 55.0°F12.8°C 48.4°F9.1°C 78% 0.9 mph E1.4 kmh E -- 30.09 in1019.0 mb - 0.00 in0.0 mm 0.00 in0.0 mm
09:32 PM 54.7°F12.6°C 48.4°F9.1°C 79% 0.9 mph SSW1.4 kmh SSW -- 30.09 in1019.0 mb - 0.00 in0.0 mm 0.00 in0.0 mm
09:27 PM 54.0°F12.2°C 47.7°F8.7°C 79% Calm Calm 8.9 mph14.3 kmh 30.09 in1019.0 mb - 0.00 in0.0 mm 0.00 in0.0 mm
09:22 PM 54.0°F12.2°C 47.7°F8.7°C 79% Calm Calm -- 30.09 in1019.0 mb - 0.00 in0.0 mm 0.00 in0.0 mm
09:17 PM 54.0°F12.2°C 48.0°F8.9°C 80% Calm Calm -- 30.09 in1019.0 mb - 0.00 in0.0 mm 0.00 in0.0 mm
09:12 PM 53.8°F12.1°C 47.5°F8.6°C 79% Calm Calm -- 30.09 in1019.0 mb - 0.00 in0.0 mm 0.00 in0.0 mm
09:07 PM 53.6°F12.0°C 47.7°F8.7°C 80% Calm Calm -- 30.09 in1019.0 mb - 0.00 in0.0 mm 0.00 in0.0 mm
09:02 PM 53.4°F11.9°C 47.1°F8.4°C 79% Calm Calm -- 30.09 in1019.0 mb - 0.00 in0.0 mm 0.00 in0.0 mm
08:57 PM 53.4°F11.9°C 47.1°F8.4°C 79% Calm Calm -- 30.09 in1019.0 mb - 0.00 in0.0 mm 0.00 in0.0 mm
08:52 PM 53.2°F11.8°C 46.9°F8.3°C 79% Calm Calm -- 30.09 in1019.0 mb - 0.00 in0.0 mm 0.00 in0.0 mm
08:47 PM 53.8°F12.1°C 47.1°F8.4°C 78% Calm Calm -- 30.09 in1019.0 mb - 0.00 in0.0 mm 0.00 in0.0 mm
08:42 PM 54.0°F12.2°C 47.3°F8.5°C 78% Calm Calm -- 30.09 in1019.0 mb - 0.00 in0.0 mm 0.00 in0.0 mm
08:37 PM 54.0°F12.2°C 47.3°F8.5°C 78% Calm Calm -- 30.09 in1019.0 mb - 0.00 in0.0 mm 0.00 in0.0 mm
08:32 PM 54.0°F12.2°C 47.3°F8.5°C 78% Calm Calm -- 30.09 in1019.0 mb - 0.00 in0.0 mm 0.00 in0.0 mm
08:27 PM 54.1°F12.3°C 47.1°F8.4°C 77% Calm Calm -- 30.09 in1019.0 mb - 0.00 in0.0 mm 0.00 in0.0 mm
08:22 PM 54.3°F12.4°C 47.3°F8.5°C 77% 0.9 mph NE1.4 kmh NE -- 30.09 in1019.0 mb - 0.00 in0.0 mm 0.00 in0.0 mm
08:17 PM 54.3°F12.4°C 46.9°F8.3°C 76% 0.9 mph E1.4 kmh E -- 30.09 in1019.0 mb - 0.00 in0.0 mm 0.00 in0.0 mm
08:12 PM 54.3°F12.4°C 47.3°F8.5°C 77% 0.9 mph ENE1.4 kmh ENE 0.9 mph1.4 kmh 30.09 in1019.0 mb - 0.00 in0.0 mm 0.00 in0.0 mm
08:07 PM 54.3°F12.4°C 46.9°F8.3°C 76% Calm Calm -- 30.09 in1019.0 mb - 0.00 in0.0 mm 0.00 in0.0 mm
08:02 PM 54.5°F12.5°C 47.1°F8.4°C 76% Calm Calm -- 30.09 in1019.0 mb - 0.00 in0.0 mm 0.00 in0.0 mm
07:57 PM 54.7°F12.6°C 46.9°F8.3°C 75% 0.9 mph SW1.4 kmh SW -- 30.08 in1018.6 mb - 0.00 in0.0 mm 0.00 in0.0 mm
07:52 PM 54.9°F12.7°C 47.1°F8.4°C 75% Calm Calm 2.0 mph3.2 kmh 30.08 in1018.6 mb - 0.00 in0.0 mm 0.00 in0.0 mm
07:47 PM 54.9°F12.7°C 46.8°F8.2°C 74% Calm Calm 0.9 mph1.4 kmh 30.08 in1018.6 mb - 0.00 in0.0 mm 0.00 in0.0 mm
07:42 PM 55.0°F12.8°C 46.9°F8.3°C 74% Calm Calm -- 30.08 in1018.6 mb - 0.00 in0.0 mm 0.00 in0.0 mm
07:37 PM 55.2°F12.9°C 46.8°F8.2°C 73% Calm Calm -- 30.08 in1018.6 mb - 0.00 in0.0 mm 0.00 in0.0 mm
07:32 PM 55.2°F12.9°C 47.1°F8.4°C 74% Calm Calm -- 30.08 in1018.6 mb - 0.00 in0.0 mm 0.00 in0.0 mm
07:27 PM 54.9°F12.7°C 46.4°F8.0°C 73% Calm Calm -- 30.08 in1018.6 mb - 0.00 in0.0 mm 0.00 in0.0 mm
07:22 PM 54.9°F12.7°C 46.4°F8.0°C 73% Calm Calm -- 30.07 in1018.3 mb - 0.00 in0.0 mm 0.00 in0.0 mm
07:17 PM 55.0°F12.8°C 46.6°F8.1°C 73% Calm Calm -- 30.07 in1018.3 mb - 0.00 in0.0 mm 0.00 in0.0 mm
07:12 PM 55.0°F12.8°C 46.6°F8.1°C 73% Calm Calm -- 30.07 in1018.3 mb - 0.00 in0.0 mm 0.00 in0.0 mm
07:07 PM 55.0°F12.8°C 46.6°F8.1°C 73% Calm Calm -- 30.07 in1018.3 mb - 0.00 in0.0 mm 0.00 in0.0 mm
07:02 PM 55.2°F12.9°C 46.4°F8.0°C 72% Calm Calm -- 30.07 in1018.3 mb - 0.00 in0.0 mm 0.00 in0.0 mm
06:57 PM 55.4°F13.0°C 46.2°F7.9°C 71% Calm Calm -- 30.07 in1018.3 mb - 0.00 in0.0 mm 0.00 in0.0 mm
06:52 PM 55.4°F13.0°C 46.2°F7.9°C 71% Calm Calm -- 30.07 in1018.3 mb - 0.00 in0.0 mm 0.00 in0.0 mm
06:47 PM 55.6°F13.1°C 46.4°F8.0°C 71% Calm Calm -- 30.07 in1018.3 mb - 0.00 in0.0 mm 0.00 in0.0 mm
06:42 PM 55.8°F13.2°C 46.6°F8.1°C 71% Calm Calm -- 30.07 in1018.3 mb - 0.00 in0.0 mm 0.00 in0.0 mm
06:37 PM 55.9°F13.3°C 46.2°F7.9°C 70% Calm Calm -- 30.06 in1017.9 mb - 0.00 in0.0 mm 0.00 in0.0 mm
06:32 PM 56.1°F13.4°C 46.4°F8.0°C 70% Calm Calm -- 30.07 in1018.3 mb - 0.00 in0.0 mm 0.00 in0.0 mm
06:27 PM 56.5°F13.6°C 46.4°F8.0°C 69% Calm Calm -- 30.06 in1017.9 mb - 0.00 in0.0 mm 0.00 in0.0 mm
06:22 PM 56.8°F13.8°C 46.8°F8.2°C 69% Calm Calm -- 30.06 in1017.9 mb - 0.00 in0.0 mm 0.00 in0.0 mm
06:17 PM 57.2°F14.0°C 46.8°F8.2°C 68% Calm Calm -- 30.06 in1017.9 mb - 0.00 in0.0 mm 0.00 in0.0 mm
06:12 PM 57.6°F14.2°C 47.1°F8.4°C 68% Calm Calm -- 30.06 in1017.9 mb - 0.00 in0.0 mm 0.00 in0.0 mm
06:07 PM 57.9°F14.4°C 46.9°F8.3°C 67% Calm Calm -- 30.06 in1017.9 mb - 0.00 in0.0 mm 0.00 in0.0 mm
06:02 PM 58.1°F14.5°C 47.1°F8.4°C 67% Calm Calm -- 30.06 in1017.9 mb - 0.00 in0.0 mm 0.00 in0.0 mm
05:57 PM 58.3°F14.6°C 47.3°F8.5°C 67% Calm Calm -- 30.05 in1017.6 mb - 0.00 in0.0 mm 0.00 in0.0 mm
05:52 PM 58.5°F14.7°C 47.1°F8.4°C 66% Calm Calm -- 30.05 in1017.6 mb - 0.00 in0.0 mm 0.00 in0.0 mm
05:47 PM 58.6°F14.8°C 47.3°F8.5°C 66% Calm Calm -- 30.05 in1017.6 mb - 0.00 in0.0 mm 0.00 in0.0 mm
05:42 PM 59.2°F15.1°C 47.5°F8.6°C 65% Calm Calm -- 30.04 in1017.3 mb - 0.00 in0.0 mm 0.00 in0.0 mm
05:37 PM 59.4°F15.2°C 47.7°F8.7°C 65% Calm Calm -- 30.04 in1017.3 mb - 0.00 in0.0 mm 0.00 in0.0 mm
05:32 PM 59.5°F15.3°C 47.3°F8.5°C 64% Calm Calm -- 30.04 in1017.3 mb - 0.00 in0.0 mm 0.00 in0.0 mm
05:27 PM 59.7°F15.4°C 47.5°F8.6°C 64% Calm Calm -- 30.04 in1017.3 mb - 0.00 in0.0 mm 0.00 in0.0 mm
05:22 PM 60.1°F15.6°C 47.8°F8.8°C 64% Calm Calm -- 30.04 in1017.3 mb - 0.00 in0.0 mm 0.00 in0.0 mm
05:17 PM 60.3°F15.7°C 47.7°F8.7°C 63% Calm Calm -- 30.04 in1017.3 mb - 0.00 in0.0 mm 0.00 in0.0 mm
05:12 PM 60.3°F15.7°C 47.1°F8.4°C 62% Calm Calm -- 30.04 in1017.3 mb - 0.00 in0.0 mm 0.00 in0.0 mm
05:07 PM 60.1°F15.6°C 46.6°F8.1°C 61% Calm Calm -- 30.04 in1017.3 mb - 0.00 in0.0 mm 0.00 in0.0 mm
05:02 PM 60.3°F15.7°C 46.4°F8.0°C 60% Calm Calm -- 30.04 in1017.3 mb - 0.00 in0.0 mm 0.00 in0.0 mm
04:57 PM 60.6°F15.9°C 46.2°F7.9°C 59% Calm Calm -- 30.04 in1017.3 mb - 0.00 in0.0 mm 0.00 in0.0 mm
04:52 PM 61.2°F16.2°C 46.8°F8.2°C 59% Calm Calm -- 30.03 in1016.9 mb - 0.00 in0.0 mm 0.00 in0.0 mm
04:47 PM 61.5°F16.4°C 46.2°F7.9°C 57% Calm Calm -- 30.03 in1016.9 mb - 0.00 in0.0 mm 0.00 in0.0 mm
04:42 PM 61.9°F16.6°C 46.0°F7.8°C 56% Calm Calm -- 30.04 in1017.3 mb - 0.00 in0.0 mm 0.00 in0.0 mm
04:37 PM 62.4°F16.9°C 46.0°F7.8°C 55% Calm Calm -- 30.03 in1016.9 mb - 0.00 in0.0 mm 0.00 in0.0 mm
04:32 PM 63.0°F17.2°C 46.6°F8.1°C 55% 0.9 mph NW1.4 kmh NW -- 30.03 in1016.9 mb - 0.00 in0.0 mm 0.00 in0.0 mm
04:27 PM 63.0°F17.2°C 45.5°F7.5°C 53% 0.9 mph SSW1.4 kmh SSW -- 30.03 in1016.9 mb - 0.00 in0.0 mm 0.00 in0.0 mm
04:22 PM 63.0°F17.2°C 45.5°F7.5°C 53% 0.9 mph SSW1.4 kmh SSW 4.0 mph6.4 kmh 30.03 in1016.9 mb - 0.00 in0.0 mm 0.00 in0.0 mm
04:17 PM 63.1°F17.3°C 45.7°F7.6°C 53% 0.9 mph SW1.4 kmh SW 2.9 mph4.7 kmh 30.03 in1016.9 mb - 0.00 in0.0 mm 0.00 in0.0 mm
04:12 PM 63.3°F17.4°C 45.9°F7.7°C 53% 2.0 mph SSE3.2 kmh SSE 2.9 mph4.7 kmh 30.04 in1017.3 mb - 0.00 in0.0 mm 0.00 in0.0 mm
04:07 PM 63.1°F17.3°C 45.7°F7.6°C 53% 2.9 mph SW4.7 kmh SW 0.9 mph1.4 kmh 30.04 in1017.3 mb - 0.00 in0.0 mm 0.00 in0.0 mm
04:02 PM 63.3°F17.4°C 45.9°F7.7°C 53% 2.0 mph S3.2 kmh S 2.0 mph3.2 kmh 30.04 in1017.3 mb - 0.00 in0.0 mm 0.00 in0.0 mm
03:57 PM 63.5°F17.5°C 46.0°F7.8°C 53% 0.9 mph S1.4 kmh S -- 30.04 in1017.3 mb - 0.00 in0.0 mm 0.00 in0.0 mm
03:52 PM 63.7°F17.6°C 46.2°F7.9°C 53% 0.9 mph SW1.4 kmh SW -- 30.03 in1016.9 mb - 0.00 in0.0 mm 0.00 in0.0 mm
03:47 PM 64.0°F17.8°C 46.0°F7.8°C 52% 0.9 mph W1.4 kmh W -- 30.03 in1016.9 mb - 0.00 in0.0 mm 0.00 in0.0 mm
03:42 PM 64.0°F17.8°C 45.5°F7.5°C 51% 2.0 mph WSW3.2 kmh WSW 2.0 mph3.2 kmh 30.04 in1017.3 mb - 0.00 in0.0 mm 0.00 in0.0 mm
03:37 PM 64.8°F18.2°C 46.2°F7.9°C 51% 2.0 mph SSW3.2 kmh SSW 2.0 mph3.2 kmh 30.03 in1016.9 mb - 0.00 in0.0 mm 0.00 in0.0 mm
03:32 PM 64.9°F18.3°C 46.4°F8.0°C 51% 4.0 mph SW6.4 kmh SW 0.9 mph1.4 kmh 30.03 in1016.9 mb - 0.00 in0.0 mm 0.00 in0.0 mm
03:27 PM 65.1°F18.4°C 45.5°F7.5°C 49% 4.9 mph SW7.9 kmh SW 4.0 mph6.4 kmh 30.04 in1017.3 mb - 0.00 in0.0 mm 0.00 in0.0 mm
03:22 PM 65.8°F18.8°C 46.2°F7.9°C 49% 2.9 mph S4.7 kmh S 4.0 mph6.4 kmh 30.04 in1017.3 mb - 0.00 in0.0 mm 0.00 in0.0 mm
03:17 PM 66.4°F19.1°C 46.6°F8.1°C 49% 2.0 mph S3.2 kmh S 2.9 mph4.7 kmh 30.03 in1016.9 mb - 0.00 in0.0 mm 0.00 in0.0 mm
03:12 PM 66.0°F18.9°C 46.4°F8.0°C 49% 2.9 mph NW4.7 kmh NW 0.9 mph1.4 kmh 30.04 in1017.3 mb - 0.00 in0.0 mm 0.00 in0.0 mm
03:07 PM 66.6°F19.2°C 46.8°F8.2°C 49% 2.9 mph S4.7 kmh S 2.9 mph4.7 kmh 30.04 in1017.3 mb - 0.00 in0.0 mm 0.00 in0.0 mm
03:02 PM 66.6°F19.2°C 46.8°F8.2°C 49% 2.0 mph S3.2 kmh S 4.9 mph7.9 kmh 30.03 in1016.9 mb - 0.00 in0.0 mm 0.00 in0.0 mm
02:57 PM 66.0°F18.9°C 46.4°F8.0°C 49% 2.0 mph SSE3.2 kmh SSE 2.0 mph3.2 kmh 30.03 in1016.9 mb - 0.00 in0.0 mm 0.00 in0.0 mm
02:52 PM 66.4°F19.1°C 46.0°F7.8°C 48% 2.0 mph SSW3.2 kmh SSW -- 30.03 in1016.9 mb - 0.00 in0.0 mm 0.00 in0.0 mm
02:47 PM 66.2°F19.0°C 45.9°F7.7°C 48% 2.9 mph SSW4.7 kmh SSW 2.9 mph4.7 kmh 30.04 in1017.3 mb - 0.00 in0.0 mm 0.00 in0.0 mm
02:42 PM 66.7°F19.3°C 46.4°F8.0°C 48% 2.9 mph SSW4.7 kmh SSW 2.0 mph3.2 kmh 30.04 in1017.3 mb - 0.00 in0.0 mm 0.00 in0.0 mm
02:37 PM 67.3°F19.6°C 46.4°F8.0°C 47% 2.9 mph S4.7 kmh S 4.0 mph6.4 kmh 30.03 in1016.9 mb - 0.00 in0.0 mm 0.00 in0.0 mm
02:32 PM 67.1°F19.5°C 45.7°F7.6°C 46% 2.9 mph SSE4.7 kmh SSE 2.0 mph3.2 kmh 30.04 in1017.3 mb - 0.00 in0.0 mm 0.00 in0.0 mm
02:27 PM 66.9°F19.4°C 45.5°F7.5°C 46% 4.0 mph SW6.4 kmh SW 0.9 mph1.4 kmh 30.04 in1017.3 mb - 0.00 in0.0 mm 0.00 in0.0 mm
02:22 PM 66.7°F19.3°C 45.9°F7.7°C 47% 4.9 mph S7.9 kmh S 4.0 mph6.4 kmh 30.04 in1017.3 mb - 0.00 in0.0 mm 0.00 in0.0 mm
02:17 PM 66.6°F19.2°C 45.1°F7.3°C 46% 4.9 mph SSW7.9 kmh SSW 2.0 mph3.2 kmh 30.04 in1017.3 mb - 0.00 in0.0 mm 0.00 in0.0 mm
02:12 PM 66.7°F19.3°C 44.8°F7.1°C 45% 4.9 mph SSE7.9 kmh SSE 4.9 mph7.9 kmh 30.04 in1017.3 mb - 0.00 in0.0 mm 0.00 in0.0 mm
02:07 PM 66.7°F19.3°C 45.3°F7.4°C 46% 4.0 mph S6.4 kmh S 10.1 mph16.3 kmh 30.04 in1017.3 mb - 0.00 in0.0 mm 0.00 in0.0 mm
02:02 PM 66.9°F19.4°C 45.5°F7.5°C 46% 4.0 mph S6.4 kmh S 4.0 mph6.4 kmh 30.04 in1017.3 mb - 0.00 in0.0 mm 0.00 in0.0 mm
01:57 PM 66.6°F19.2°C 45.1°F7.3°C 46% 4.0 mph S6.4 kmh S 4.0 mph6.4 kmh 30.04 in1017.3 mb - 0.00 in0.0 mm 0.00 in0.0 mm
01:52 PM 66.4°F19.1°C 44.4°F6.9°C 45% 4.0 mph SE6.4 kmh SE 4.0 mph6.4 kmh 30.04 in1017.3 mb - 0.00 in0.0 mm 0.00 in0.0 mm
01:47 PM 66.7°F19.3°C 44.8°F7.1°C 45% 4.0 mph S6.4 kmh S 4.9 mph7.9 kmh 30.04 in1017.3 mb - 0.00 in0.0 mm 0.00 in0.0 mm
01:42 PM 66.6°F19.2°C 45.1°F7.3°C 46% 4.0 mph S6.4 kmh S 6.9 mph11.1 kmh 30.04 in1017.3 mb - 0.00 in0.0 mm 0.00 in0.0 mm
01:37 PM 66.4°F19.1°C 44.4°F6.9°C 45% 4.0 mph SSW6.4 kmh SSW 2.9 mph4.7 kmh 30.04 in1017.3 mb - 0.00 in0.0 mm 0.00 in0.0 mm
01:32 PM 66.2°F19.0°C 45.3°F7.4°C 47% 4.0 mph S6.4 kmh S 2.0 mph3.2 kmh 30.04 in1017.3 mb - 0.00 in0.0 mm 0.00 in0.0 mm
01:27 PM 65.8°F18.8°C 44.4°F6.9°C 46% 4.9 mph SSW7.9 kmh SSW 4.0 mph6.4 kmh 30.04 in1017.3 mb - 0.00 in0.0 mm 0.00 in0.0 mm
01:22 PM 65.7°F18.7°C 44.2°F6.8°C 46% 6.0 mph S9.7 kmh S 4.9 mph7.9 kmh 30.04 in1017.3 mb - 0.00 in0.0 mm 0.00 in0.0 mm
01:17 PM 66.2°F19.0°C 44.2°F6.8°C 45% 4.9 mph S7.9 kmh S 6.9 mph11.1 kmh 30.04 in1017.3 mb - 0.00 in0.0 mm 0.00 in0.0 mm
01:12 PM 66.4°F19.1°C 44.4°F6.9°C 45% 4.0 mph SW6.4 kmh SW 4.9 mph7.9 kmh 30.04 in1017.3 mb - 0.00 in0.0 mm 0.00 in0.0 mm
01:07 PM 66.2°F19.0°C 44.8°F7.1°C 46% 2.9 mph SSW4.7 kmh SSW 2.9 mph4.7 kmh 30.04 in1017.3 mb - 0.00 in0.0 mm 0.00 in0.0 mm
01:02 PM 66.4°F19.1°C 44.4°F6.9°C 45% 2.9 mph S4.7 kmh S 2.9 mph4.7 kmh 30.04 in1017.3 mb - 0.00 in0.0 mm 0.00 in0.0 mm
12:57 PM 65.8°F18.8°C 45.0°F7.2°C 47% 2.9 mph SSW4.7 kmh SSW 4.9 mph7.9 kmh 30.04 in1017.3 mb - 0.00 in0.0 mm 0.00 in0.0 mm
12:52 PM 65.7°F18.7°C 44.2°F6.8°C 46% 2.9 mph SW4.7 kmh SW 0.9 mph1.4 kmh 30.04 in1017.3 mb - 0.00 in0.0 mm 0.00 in0.0 mm
12:47 PM 65.7°F18.7°C 45.5°F7.5°C 48% 2.0 mph SE3.2 kmh SE 2.0 mph3.2 kmh 30.05 in1017.6 mb - 0.00 in0.0 mm 0.00 in0.0 mm
12:42 PM 65.1°F18.4°C 45.5°F7.5°C 49% 2.9 mph SW4.7 kmh SW 2.0 mph3.2 kmh 30.05 in1017.6 mb - 0.00 in0.0 mm 0.00 in0.0 mm
12:37 PM 64.8°F18.2°C 44.1°F6.7°C 47% 4.0 mph SSW6.4 kmh SSW 2.9 mph4.7 kmh 30.05 in1017.6 mb - 0.00 in0.0 mm 0.00 in0.0 mm
12:32 PM 64.9°F18.3°C 43.7°F6.5°C 46% 4.0 mph S6.4 kmh S 4.9 mph7.9 kmh 30.05 in1017.6 mb - 0.00 in0.0 mm 0.00 in0.0 mm
12:27 PM 65.1°F18.4°C 44.4°F6.9°C 47% 2.9 mph SSE4.7 kmh SSE 0.9 mph1.4 kmh 30.05 in1017.6 mb - 0.00 in0.0 mm 0.00 in0.0 mm
12:22 PM 65.5°F18.6°C 44.2°F6.8°C 46% 2.9 mph SSW4.7 kmh SSW 0.9 mph1.4 kmh 30.05 in1017.6 mb - 0.00 in0.0 mm 0.00 in0.0 mm
12:17 PM 65.1°F18.4°C 45.0°F7.2°C 48% 2.9 mph S4.7 kmh S 2.0 mph3.2 kmh 30.05 in1017.6 mb - 0.00 in0.0 mm 0.00 in0.0 mm
12:12 PM 65.1°F18.4°C 44.4°F6.9°C 47% 2.9 mph SSE4.7 kmh SSE -- 30.05 in1017.6 mb - 0.00 in0.0 mm 0.00 in0.0 mm
12:07 PM 64.9°F18.3°C 44.2°F6.8°C 47% 4.0 mph S6.4 kmh S 4.9 mph7.9 kmh 30.05 in1017.6 mb - 0.00 in0.0 mm 0.00 in0.0 mm
12:02 PM 64.8°F18.2°C 44.1°F6.7°C 47% 4.0 mph S6.4 kmh S 4.9 mph7.9 kmh 30.05 in1017.6 mb - 0.00 in0.0 mm 0.00 in0.0 mm
11:57 AM 64.8°F18.2°C 44.6°F7.0°C 48% 4.0 mph S6.4 kmh S 6.0 mph9.7 kmh 30.06 in1017.9 mb - 0.00 in0.0 mm 0.00 in0.0 mm
11:52 AM 64.6°F18.1°C 44.4°F6.9°C 48% 4.0 mph SSW6.4 kmh SSW 2.9 mph4.7 kmh 30.06 in1017.9 mb - 0.00 in0.0 mm 0.00 in0.0 mm
11:47 AM 64.6°F18.1°C 44.4°F6.9°C 48% 4.0 mph S6.4 kmh S 6.9 mph11.1 kmh 30.06 in1017.9 mb - 0.00 in0.0 mm 0.00 in0.0 mm
11:42 AM 64.6°F18.1°C 45.0°F7.2°C 49% 4.0 mph SSW6.4 kmh SSW 2.0 mph3.2 kmh 30.06 in1017.9 mb - 0.00 in0.0 mm 0.00 in0.0 mm
11:37 AM 64.4°F18.0°C 44.8°F7.1°C 49% 4.0 mph SE6.4 kmh SE 11.0 mph17.7 kmh 30.05 in1017.6 mb - 0.00 in0.0 mm 0.00 in0.0 mm
11:32 AM 64.2°F17.9°C 44.1°F6.7°C 48% 4.9 mph S7.9 kmh S 2.0 mph3.2 kmh 30.06 in1017.9 mb - 0.00 in0.0 mm 0.00 in0.0 mm
11:27 AM 63.7°F17.6°C 43.7°F6.5°C 48% 4.9 mph S7.9 kmh S 6.9 mph11.1 kmh 30.06 in1017.9 mb - 0.00 in0.0 mm 0.00 in0.0 mm
11:22 AM 63.9°F17.7°C 43.2°F6.2°C 47% 4.9 mph S7.9 kmh S 8.1 mph13.0 kmh 30.06 in1017.9 mb - 0.00 in0.0 mm 0.00 in0.0 mm
11:17 AM 63.3°F17.4°C 43.9°F6.6°C 49% 4.9 mph S7.9 kmh S -- 30.06 in1017.9 mb - 0.00 in0.0 mm 0.00 in0.0 mm
11:12 AM 63.1°F17.3°C 43.7°F6.5°C 49% 4.9 mph SW7.9 kmh SW 4.9 mph7.9 kmh 30.06 in1017.9 mb - 0.00 in0.0 mm 0.00 in0.0 mm
11:07 AM 63.1°F17.3°C 43.7°F6.5°C 49% 4.9 mph S7.9 kmh S 6.9 mph11.1 kmh 30.06 in1017.9 mb - 0.00 in0.0 mm 0.00 in0.0 mm
11:02 AM 63.0°F17.2°C 43.5°F6.4°C 49% 6.0 mph SSW9.7 kmh SSW 2.9 mph4.7 kmh 30.06 in1017.9 mb - 0.00 in0.0 mm 0.00 in0.0 mm
10:57 AM 63.0°F17.2°C 44.1°F6.7°C 50% 4.9 mph S7.9 kmh S 6.9 mph11.1 kmh 30.06 in1017.9 mb - 0.00 in0.0 mm 0.00 in0.0 mm
10:52 AM 63.1°F17.3°C 43.7°F6.5°C 49% 4.9 mph SW7.9 kmh SW 2.9 mph4.7 kmh 30.06 in1017.9 mb - 0.00 in0.0 mm 0.00 in0.0 mm
10:47 AM 63.1°F17.3°C 43.2°F6.2°C 48% 4.0 mph SW6.4 kmh SW 12.1 mph19.5 kmh 30.06 in1017.9 mb - 0.00 in0.0 mm 0.00 in0.0 mm
10:42 AM 63.1°F17.3°C 44.2°F6.8°C 50% 4.0 mph S6.4 kmh S 4.0 mph6.4 kmh 30.06 in1017.9 mb - 0.00 in0.0 mm 0.00 in0.0 mm
10:37 AM 63.0°F17.2°C 44.1°F6.7°C 50% 4.0 mph SSW6.4 kmh SSW 2.0 mph3.2 kmh 30.06 in1017.9 mb - 0.00 in0.0 mm 0.00 in0.0 mm
10:32 AM 63.0°F17.2°C 44.1°F6.7°C 50% 2.9 mph S4.7 kmh S 4.9 mph7.9 kmh 30.06 in1017.9 mb - 0.00 in0.0 mm 0.00 in0.0 mm
10:27 AM 63.0°F17.2°C 44.1°F6.7°C 50% 4.0 mph S6.4 kmh S 2.9 mph4.7 kmh 30.06 in1017.9 mb - 0.00 in0.0 mm 0.00 in0.0 mm
10:22 AM 62.8°F17.1°C 43.3°F6.3°C 49% 4.9 mph S7.9 kmh S 2.9 mph4.7 kmh 30.06 in1017.9 mb - 0.00 in0.0 mm 0.00 in0.0 mm
10:17 AM 62.6°F17.0°C 43.2°F6.2°C 49% 6.0 mph SSE9.7 kmh SSE 4.0 mph6.4 kmh 30.06 in1017.9 mb - 0.00 in0.0 mm 0.00 in0.0 mm
10:12 AM 62.2°F16.8°C 43.3°F6.3°C 50% 4.9 mph S7.9 kmh S 8.1 mph13.0 kmh 30.06 in1017.9 mb - 0.00 in0.0 mm 0.00 in0.0 mm
10:07 AM 62.1°F16.7°C 43.2°F6.2°C 50% 4.0 mph SSW6.4 kmh SSW 4.0 mph6.4 kmh 30.06 in1017.9 mb - 0.00 in0.0 mm 0.00 in0.0 mm
10:02 AM 62.1°F16.7°C 43.7°F6.5°C 51% 2.0 mph SW3.2 kmh SW 2.0 mph3.2 kmh 30.06 in1017.9 mb - 0.00 in0.0 mm 0.00 in0.0 mm
09:57 AM 61.9°F16.6°C 43.5°F6.4°C 51% 2.0 mph S3.2 kmh S 2.9 mph4.7 kmh 30.06 in1017.9 mb - 0.00 in0.0 mm 0.00 in0.0 mm
09:52 AM 61.5°F16.4°C 43.7°F6.5°C 52% 2.9 mph S4.7 kmh S 2.0 mph3.2 kmh 30.06 in1017.9 mb - 0.00 in0.0 mm 0.00 in0.0 mm
09:47 AM 61.5°F16.4°C 43.7°F6.5°C 52% 2.0 mph S3.2 kmh S 6.0 mph9.7 kmh 30.06 in1017.9 mb - 0.00 in0.0 mm 0.00 in0.0 mm
09:42 AM 61.7°F16.5°C 44.4°F6.9°C 53% 2.0 mph S3.2 kmh S 6.0 mph9.7 kmh 30.06 in1017.9 mb - 0.00 in0.0 mm 0.00 in0.0 mm
09:37 AM 61.5°F16.4°C 44.8°F7.1°C 54% 0.9 mph WSW1.4 kmh WSW 0.9 mph1.4 kmh 30.05 in1017.6 mb - 0.00 in0.0 mm 0.00 in0.0 mm
09:32 AM 61.2°F16.2°C 44.4°F6.9°C 54% Calm Calm 0.9 mph1.4 kmh 30.05 in1017.6 mb - 0.00 in0.0 mm 0.00 in0.0 mm
09:27 AM 60.6°F15.9°C 44.8°F7.1°C 56% Calm Calm -- 30.05 in1017.6 mb - 0.00 in0.0 mm 0.00 in0.0 mm
09:22 AM 60.4°F15.8°C 46.0°F7.8°C 59% Calm Calm -- 30.05 in1017.6 mb - 0.00 in0.0 mm 0.00 in0.0 mm
09:17 AM 60.6°F15.9°C 44.8°F7.1°C 56% Calm Calm -- 30.05 in1017.6 mb - 0.00 in0.0 mm 0.00 in0.0 mm
09:12 AM 59.9°F15.5°C 44.2°F6.8°C 56% Calm Calm -- 30.05 in1017.6 mb - 0.00 in0.0 mm 0.00 in0.0 mm
09:07 AM 59.7°F15.4°C 45.0°F7.2°C 58% Calm Calm -- 30.05 in1017.6 mb - 0.00 in0.0 mm 0.00 in0.0 mm
09:02 AM 58.8°F14.9°C 45.9°F7.7°C 62% Calm Calm -- 30.05 in1017.6 mb - 0.00 in0.0 mm 0.00 in0.0 mm
08:57 AM 57.7°F14.3°C 45.7°F7.6°C 64% Calm Calm -- 30.05 in1017.6 mb - 0.00 in0.0 mm 0.00 in0.0 mm
08:52 AM 58.5°F14.7°C 45.1°F7.3°C 61% Calm Calm -- 30.06 in1017.9 mb - 0.00 in0.0 mm 0.00 in0.0 mm
08:47 AM 57.6°F14.2°C 45.1°F7.3°C 63% Calm Calm -- 30.05 in1017.6 mb - 0.00 in0.0 mm 0.00 in0.0 mm
08:42 AM 57.0°F13.9°C 45.3°F7.4°C 65% Calm Calm -- 30.05 in1017.6 mb - 0.00 in0.0 mm 0.00 in0.0 mm
08:37 AM 57.0°F13.9°C 45.0°F7.2°C 64% Calm Calm -- 30.06 in1017.9 mb - 0.00 in0.0 mm 0.00 in0.0 mm
08:32 AM 55.9°F13.3°C 44.8°F7.1°C 66% Calm Calm -- 30.05 in1017.6 mb - 0.00 in0.0 mm 0.00 in0.0 mm
08:27 AM 55.0°F12.8°C 44.6°F7.0°C 68% Calm Calm -- 30.05 in1017.6 mb - 0.00 in0.0 mm 0.00 in0.0 mm
08:22 AM 55.8°F13.2°C 44.6°F7.0°C 66% Calm Calm -- 30.05 in1017.6 mb - 0.00 in0.0 mm 0.00 in0.0 mm
08:17 AM 55.2°F12.9°C 44.4°F6.9°C 67% Calm Calm -- 30.05 in1017.6 mb - 0.00 in0.0 mm 0.00 in0.0 mm
08:12 AM 55.0°F12.8°C 44.2°F6.8°C 67% Calm Calm -- 30.05 in1017.6 mb - 0.00 in0.0 mm 0.00 in0.0 mm
08:07 AM 54.9°F12.7°C 44.1°F6.7°C 67% Calm Calm -- 30.05 in1017.6 mb - 0.00 in0.0 mm 0.00 in0.0 mm
08:02 AM 54.1°F12.3°C 43.3°F6.3°C 67% Calm Calm -- 30.05 in1017.6 mb - 0.00 in0.0 mm 0.00 in0.0 mm
07:57 AM 54.0°F12.2°C 44.1°F6.7°C 69% Calm Calm -- 30.05 in1017.6 mb - 0.00 in0.0 mm 0.00 in0.0 mm
07:52 AM 53.4°F11.9°C 43.5°F6.4°C 69% Calm Calm -- 30.05 in1017.6 mb - 0.00 in0.0 mm 0.00 in0.0 mm
07:47 AM 53.2°F11.8°C 43.3°F6.3°C 69% Calm Calm -- 30.05 in1017.6 mb - 0.00 in0.0 mm 0.00 in0.0 mm
07:42 AM 53.2°F11.8°C 43.3°F6.3°C 69% Calm Calm -- 30.05 in1017.6 mb - 0.00 in0.0 mm 0.00 in0.0 mm
07:37 AM 52.7°F11.5°C 43.2°F6.2°C 70% Calm Calm -- 30.05 in1017.6 mb - 0.00 in0.0 mm 0.00 in0.0 mm
07:32 AM 52.2°F11.2°C 42.6°F5.9°C 70% Calm Calm -- 30.05 in1017.6 mb - 0.00 in0.0 mm 0.00 in0.0 mm
07:27 AM 52.5°F11.4°C 42.6°F5.9°C 69% Calm Calm -- 30.05 in1017.6 mb - 0.00 in0.0 mm 0.00 in0.0 mm
07:22 AM 52.3°F11.3°C 42.8°F6.0°C 70% Calm Calm -- 30.05 in1017.6 mb - 0.00 in0.0 mm 0.00 in0.0 mm
07:17 AM 52.0°F11.1°C 42.4°F5.8°C 70% Calm Calm -- 30.05 in1017.6 mb - 0.00 in0.0 mm 0.00 in0.0 mm
07:12 AM 51.6°F10.9°C 42.1°F5.6°C 70% Calm Calm -- 30.04 in1017.3 mb - 0.00 in0.0 mm 0.00 in0.0 mm
07:07 AM 52.0°F11.1°C 42.4°F5.8°C 70% Calm Calm -- 30.04 in1017.3 mb - 0.00 in0.0 mm 0.00 in0.0 mm
07:02 AM 52.0°F11.1°C 42.4°F5.8°C 70% Calm Calm -- 30.04 in1017.3 mb - 0.00 in0.0 mm 0.00 in0.0 mm
06:57 AM 52.0°F11.1°C 42.4°F5.8°C 70% Calm Calm -- 30.04 in1017.3 mb - 0.00 in0.0 mm 0.00 in0.0 mm
06:52 AM 52.0°F11.1°C 42.4°F5.8°C 70% Calm Calm -- 30.04 in1017.3 mb - 0.00 in0.0 mm 0.00 in0.0 mm
06:47 AM 52.0°F11.1°C 42.4°F5.8°C 70% Calm Calm -- 30.04 in1017.3 mb - 0.00 in0.0 mm 0.00 in0.0 mm
06:42 AM 52.0°F11.1°C 42.4°F5.8°C 70% Calm Calm -- 30.04 in1017.3 mb - 0.00 in0.0 mm 0.00 in0.0 mm
06:37 AM 52.0°F11.1°C 42.1°F5.6°C 69% Calm Calm -- 30.04 in1017.3 mb - 0.00 in0.0 mm 0.00 in0.0 mm
06:32 AM 52.0°F11.1°C 42.1°F5.6°C 69% Calm Calm -- 30.04 in1017.3 mb - 0.00 in0.0 mm 0.00 in0.0 mm
06:27 AM 52.0°F11.1°C 42.1°F5.6°C 69% Calm Calm -- 30.04 in1017.3 mb - 0.00 in0.0 mm 0.00 in0.0 mm
06:22 AM 52.0°F11.1°C 42.1°F5.6°C 69% Calm Calm -- 30.04 in1017.3 mb - 0.00 in0.0 mm 0.00 in0.0 mm
06:17 AM 52.2°F11.2°C 42.3°F5.7°C 69% Calm Calm -- 30.04 in1017.3 mb - 0.00 in0.0 mm 0.00 in0.0 mm
06:12 AM 52.2°F11.2°C 42.3°F5.7°C 69% Calm Calm -- 30.04 in1017.3 mb - 0.00 in0.0 mm 0.00 in0.0 mm
06:07 AM 52.2°F11.2°C 41.9°F5.5°C 68% Calm Calm -- 30.04 in1017.3 mb - 0.00 in0.0 mm 0.00 in0.0 mm
06:02 AM 52.2°F11.2°C 42.3°F5.7°C 69% Calm Calm -- 30.04 in1017.3 mb - 0.00 in0.0 mm 0.00 in0.0 mm
05:57 AM 52.2°F11.2°C 41.9°F5.5°C 68% Calm Calm -- 30.03 in1016.9 mb - 0.00 in0.0 mm 0.00 in0.0 mm
05:52 AM 52.2°F11.2°C 42.3°F5.7°C 69% Calm Calm -- 30.04 in1017.3 mb - 0.00 in0.0 mm 0.00 in0.0 mm
05:47 AM 52.2°F11.2°C 42.3°F5.7°C 69% Calm Calm -- 30.04 in1017.3 mb - 0.00 in0.0 mm 0.00 in0.0 mm
05:42 AM 52.2°F11.2°C 41.9°F5.5°C 68% Calm Calm -- 30.04 in1017.3 mb - 0.00 in0.0 mm 0.00 in0.0 mm
05:37 AM 52.2°F11.2°C 41.9°F5.5°C 68% Calm Calm -- 30.04 in1017.3 mb - 0.00 in0.0 mm 0.00 in0.0 mm
05:32 AM 52.0°F11.1°C 42.1°F5.6°C 69% Calm Calm -- 30.04 in1017.3 mb - 0.00 in0.0 mm 0.00 in0.0 mm
05:27 AM 51.6°F10.9°C 41.7°F5.4°C 69% Calm Calm -- 30.04 in1017.3 mb - 0.00 in0.0 mm 0.00 in0.0 mm
05:22 AM 52.0°F11.1°C 41.7°F5.4°C 68% Calm Calm -- 30.04 in1017.3 mb - 0.00 in0.0 mm 0.00 in0.0 mm
05:17 AM 52.0°F11.1°C 41.7°F5.4°C 68% Calm Calm -- 30.03 in1016.9 mb - 0.00 in0.0 mm 0.00 in0.0 mm
05:12 AM 52.3°F11.3°C 42.1°F5.6°C 68% Calm Calm -- 30.03 in1016.9 mb - 0.00 in0.0 mm 0.00 in0.0 mm
05:07 AM 52.3°F11.3°C 42.1°F5.6°C 68% Calm Calm -- 30.03 in1016.9 mb - 0.00 in0.0 mm 0.00 in0.0 mm
05:02 AM 52.3°F11.3°C 42.1°F5.6°C 68% Calm Calm -- 30.04 in1017.3 mb - 0.00 in0.0 mm 0.00 in0.0 mm
04:57 AM 52.5°F11.4°C 41.9°F5.5°C 67% Calm Calm -- 30.04 in1017.3 mb - 0.00 in0.0 mm 0.00 in0.0 mm
04:52 AM 52.5°F11.4°C 41.9°F5.5°C 67% Calm Calm -- 30.03 in1016.9 mb - 0.00 in0.0 mm 0.00 in0.0 mm
04:47 AM 52.7°F11.5°C 42.1°F5.6°C 67% Calm Calm -- 30.03 in1016.9 mb - 0.00 in0.0 mm 0.00 in0.0 mm
04:42 AM 52.9°F11.6°C 41.9°F5.5°C 66% Calm Calm -- 30.03 in1016.9 mb - 0.00 in0.0 mm 0.00 in0.0 mm
04:37 AM 52.9°F11.6°C 42.3°F5.7°C 67% Calm Calm -- 30.03 in1016.9 mb - 0.00 in0.0 mm 0.00 in0.0 mm
04:32 AM 52.9°F11.6°C 42.3°F5.7°C 67% Calm Calm -- 30.03 in1016.9 mb - 0.00 in0.0 mm 0.00 in0.0 mm
04:27 AM 52.9°F11.6°C 41.9°F5.5°C 66% Calm Calm -- 30.03 in1016.9 mb - 0.00 in0.0 mm 0.00 in0.0 mm
04:22 AM 52.7°F11.5°C 41.7°F5.4°C 66% Calm Calm -- 30.03 in1016.9 mb - 0.00 in0.0 mm 0.00 in0.0 mm
04:17 AM 52.9°F11.6°C 41.9°F5.5°C 66% Calm Calm -- 30.03 in1016.9 mb - 0.00 in0.0 mm 0.00 in0.0 mm
04:12 AM 52.7°F11.5°C 41.7°F5.4°C 66% Calm Calm -- 30.03 in1016.9 mb - 0.00 in0.0 mm 0.00 in0.0 mm
04:07 AM 52.9°F11.6°C 42.3°F5.7°C 67% Calm Calm -- 30.03 in1016.9 mb - 0.00 in0.0 mm 0.00 in0.0 mm
04:02 AM 53.2°F11.8°C 42.3°F5.7°C 66% Calm Calm -- 30.03 in1016.9 mb - 0.00 in0.0 mm 0.00 in0.0 mm
03:57 AM 53.2°F11.8°C 42.6°F5.9°C 67% Calm Calm -- 30.03 in1016.9 mb - 0.00 in0.0 mm 0.00 in0.0 mm
03:52 AM 53.1°F11.7°C 42.4°F5.8°C 67% Calm Calm -- 30.03 in1016.9 mb - 0.00 in0.0 mm 0.00 in0.0 mm
03:47 AM 52.9°F11.6°C 42.3°F5.7°C 67% Calm Calm -- 30.03 in1016.9 mb - 0.00 in0.0 mm 0.00 in0.0 mm
03:42 AM 52.5°F11.4°C 42.3°F5.7°C 68% Calm Calm -- 30.03 in1016.9 mb - 0.00 in0.0 mm 0.00 in0.0 mm
03:37 AM 52.3°F11.3°C 42.4°F5.8°C 69% Calm Calm -- 30.03 in1016.9 mb - 0.00 in0.0 mm 0.00 in0.0 mm
03:32 AM 52.3°F11.3°C 42.4°F5.8°C 69% Calm Calm -- 30.03 in1016.9 mb - 0.00 in0.0 mm 0.00 in0.0 mm
03:27 AM 52.5°F11.4°C 42.3°F5.7°C 68% Calm Calm -- 30.03 in1016.9 mb - 0.00 in0.0 mm 0.00 in0.0 mm
03:22 AM 52.9°F11.6°C 42.6°F5.9°C 68% Calm Calm -- 30.03 in1016.9 mb - 0.00 in0.0 mm 0.00 in0.0 mm
03:17 AM 52.5°F11.4°C 42.6°F5.9°C 69% Calm Calm -- 30.03 in1016.9 mb - 0.00 in0.0 mm 0.00 in0.0 mm
03:12 AM 52.9°F11.6°C 43.0°F6.1°C 69% Calm Calm -- 30.03 in1016.9 mb - 0.00 in0.0 mm 0.00 in0.0 mm
03:07 AM 52.5°F11.4°C 43.0°F6.1°C 70% Calm Calm -- 30.03 in1016.9 mb - 0.00 in0.0 mm 0.00 in0.0 mm
03:02 AM 52.2°F11.2°C 43.0°F6.1°C 71% Calm Calm -- 30.03 in1016.9 mb - 0.00 in0.0 mm 0.00 in0.0 mm
02:57 AM 52.2°F11.2°C 42.6°F5.9°C 70% Calm Calm -- 30.03 in1016.9 mb - 0.00 in0.0 mm 0.00 in0.0 mm
02:52 AM 53.2°F11.8°C 43.0°F6.1°C 68% Calm Calm -- 30.03 in1016.9 mb - 0.00 in0.0 mm 0.00 in0.0 mm
02:47 AM 53.2°F11.8°C 43.3°F6.3°C 69% Calm Calm -- 30.03 in1016.9 mb - 0.00 in0.0 mm 0.00 in0.0 mm
02:42 AM 53.1°F11.7°C 43.2°F6.2°C 69% Calm Calm -- 30.04 in1017.3 mb - 0.00 in0.0 mm 0.00 in0.0 mm
02:37 AM 53.2°F11.8°C 43.7°F6.5°C 70% Calm Calm -- 30.04 in1017.3 mb - 0.00 in0.0 mm 0.00 in0.0 mm
02:32 AM 53.2°F11.8°C 43.7°F6.5°C 70% Calm Calm -- 30.04 in1017.3 mb - 0.00 in0.0 mm 0.00 in0.0 mm
02:27 AM 52.9°F11.6°C 43.7°F6.5°C 71% Calm Calm -- 30.04 in1017.3 mb - 0.00 in0.0 mm 0.00 in0.0 mm
02:22 AM 52.7°F11.5°C 43.5°F6.4°C 71% Calm Calm -- 30.04 in1017.3 mb - 0.00 in0.0 mm 0.00 in0.0 mm
02:17 AM 52.3°F11.3°C 43.5°F6.4°C 72% Calm Calm -- 30.04 in1017.3 mb - 0.00 in0.0 mm 0.00 in0.0 mm
02:12 AM 52.3°F11.3°C 43.9°F6.6°C 73% Calm Calm -- 30.04 in1017.3 mb - 0.00 in0.0 mm 0.00 in0.0 mm
02:07 AM 51.6°F10.9°C 43.3°F6.3°C 73% Calm Calm -- 30.03 in1016.9 mb - 0.00 in0.0 mm 0.00 in0.0 mm
02:02 AM 51.4°F10.8°C 43.5°F6.4°C 74% Calm Calm -- 30.03 in1016.9 mb - 0.00 in0.0 mm 0.00 in0.0 mm
01:57 AM 51.6°F10.9°C 43.3°F6.3°C 73% Calm Calm -- 30.04 in1017.3 mb - 0.00 in0.0 mm 0.00 in0.0 mm
01:52 AM 52.0°F11.1°C 43.5°F6.4°C 73% Calm Calm -- 30.04 in1017.3 mb - 0.00 in0.0 mm 0.00 in0.0 mm
01:47 AM 52.7°F11.5°C 43.5°F6.4°C 71% Calm Calm -- 30.04 in1017.3 mb - 0.00 in0.0 mm 0.00 in0.0 mm
01:42 AM 52.3°F11.3°C 43.9°F6.6°C 73% Calm Calm -- 30.04 in1017.3 mb - 0.00 in0.0 mm 0.00 in0.0 mm
01:37 AM 52.2°F11.2°C 43.7°F6.5°C 73% Calm Calm -- 30.04 in1017.3 mb - 0.00 in0.0 mm 0.00 in0.0 mm
01:32 AM 52.2°F11.2°C 44.1°F6.7°C 74% Calm Calm -- 30.04 in1017.3 mb - 0.00 in0.0 mm 0.00 in0.0 mm
01:27 AM 52.0°F11.1°C 43.9°F6.6°C 74% Calm Calm -- 30.04 in1017.3 mb - 0.00 in0.0 mm 0.00 in0.0 mm
01:22 AM 52.5°F11.4°C 43.7°F6.5°C 72% Calm Calm -- 30.04 in1017.3 mb - 0.00 in0.0 mm 0.00 in0.0 mm
01:17 AM 53.1°F11.7°C 44.2°F6.8°C 72% Calm Calm -- 30.04 in1017.3 mb - 0.00 in0.0 mm 0.00 in0.0 mm
01:12 AM 53.2°F11.8°C 44.8°F7.1°C 73% Calm Calm -- 30.04 in1017.3 mb - 0.00 in0.0 mm 0.00 in0.0 mm
01:07 AM 53.8°F12.1°C 44.6°F7.0°C 71% Calm Calm -- 30.04 in1017.3 mb - 0.00 in0.0 mm 0.00 in0.0 mm
01:02 AM 54.0°F12.2°C 45.1°F7.3°C 72% Calm Calm -- 30.04 in1017.3 mb - 0.00 in0.0 mm 0.00 in0.0 mm
12:57 AM 53.6°F12.0°C 45.1°F7.3°C 73% Calm Calm -- 30.04 in1017.3 mb - 0.00 in0.0 mm 0.00 in0.0 mm
12:52 AM 53.6°F12.0°C 44.8°F7.1°C 72% Calm Calm -- 30.04 in1017.3 mb - 0.00 in0.0 mm 0.00 in0.0 mm
12:47 AM 53.6°F12.0°C 45.1°F7.3°C 73% Calm Calm -- 30.04 in1017.3 mb - 0.00 in0.0 mm 0.00 in0.0 mm
12:42 AM 53.4°F11.9°C 45.0°F7.2°C 73% Calm Calm -- 30.04 in1017.3 mb - 0.00 in0.0 mm 0.00 in0.0 mm
12:37 AM 53.2°F11.8°C 44.8°F7.1°C 73% Calm Calm -- 30.04 in1017.3 mb - 0.00 in0.0 mm 0.00 in0.0 mm
12:32 AM 53.1°F11.7°C 44.6°F7.0°C 73% Calm Calm -- 30.04 in1017.3 mb - 0.00 in0.0 mm 0.00 in0.0 mm
12:27 AM 53.4°F11.9°C 44.2°F6.8°C 71% Calm Calm -- 30.05 in1017.6 mb - 0.00 in0.0 mm 0.00 in0.0 mm
12:22 AM 54.1°F12.3°C 45.0°F7.2°C 71% Calm Calm -- 30.05 in1017.6 mb - 0.00 in0.0 mm 0.00 in0.0 mm
12:17 AM 55.0°F12.8°C 45.1°F7.3°C 69% Calm Calm -- 30.05 in1017.6 mb - 0.00 in0.0 mm 0.00 in0.0 mm
12:12 AM 55.2°F12.9°C 45.1°F7.3°C 69% Calm Calm -- 30.05 in1017.6 mb - 0.00 in0.0 mm 0.00 in0.0 mm
12:07 AM 55.6°F13.1°C 45.5°F7.5°C 69% Calm Calm -- 30.05 in1017.6 mb - 0.00 in0.0 mm 0.00 in0.0 mm
12:02 AM 55.9°F13.3°C 45.5°F7.5°C 68% Calm Calm -- 30.05 in1017.6 mb - 0.00 in0.0 mm 0.00 in0.0 mm